• Join FlightAware (Why Join?)
  • Login
  • US Flag 
11:20AM EDT


 

Airport Tracker/Info


-or-


 

Live Flight TrackerFlight Track Log ✈ SWA3764 ✈ 01-May-2013 ✈ KBNA - KECP

Flight Track Log - Related Links

Times and Time Zones

All times are in EDT time to prevent confusion due to time zone crossing. See the SWA3764 flight status page for this flight to view local times or setup timezone preferences in your user account.

Time Position Orientation Groundspeed Altitude Reporting Facility
EDT Latitude Longitude Course Direction KTS MPH feet Rate Location/Type
09:16AM 36.0500 -86.6833 180° South 182 209 3,300  Level Nashville TRACON
09:17AM 36.0000 -86.7000 195° South 270 311 5,100 2,820 Climbing Nashville TRACON
09:18AM 35.9028 -86.7128 186° South 311 358 9,100 2,640 Climbing Memphis Center
09:19AM 35.8300 -86.7214 185° South 303 349 10,900 2,400 Climbing Memphis Center
09:20AM 35.7367 -86.7356 187° South 327 376 13,900 3,240 Climbing Memphis Center
09:21AM 35.6350 -86.7553 189° South 362 417 17,400 3,060 Climbing Memphis Center
09:23AM 35.4750 -86.7828 188° South 386 444 21,700 2,760 Climbing Atlanta Center
09:24AM 35.3558 -86.7889 182° South 387 445 24,400 2,400 Climbing Atlanta Center
09:25AM 35.2408 -86.7978 184° South 407 468 26,600 2,100 Climbing Atlanta Center
09:26AM 35.1239 -86.8042 183° South 418 481 28,600 1,860 Climbing Atlanta Center
09:27AM 35.0028 -86.8128 183° South 425 489 30,400 660 Climbing Atlanta Center
09:28AM 34.8814 -86.8189 182° South 430 495 30,000 -240 Descending Atlanta Center
09:29AM 34.7603 -86.8250 182° South 436 502 30,000  Level Atlanta Center
09:30AM 34.6411 -86.8336 183° South 436 502 30,000  Level Atlanta Center
09:31AM 34.5219 -86.8422 183° South 436 502 30,000  Level Atlanta Center
09:32AM 34.4031 -86.8483 182° South 436 502 30,000  Level Atlanta Center
09:33AM 34.2839 -86.8569 183° South 436 502 30,000  Level Atlanta Center
09:34AM 34.1625 -86.8631 182° South 436 502 30,000  Level Atlanta Center
09:35AM 34.0456 -86.8717 183° South 436 502 30,000  Level Atlanta Center
09:36AM 33.9264 -86.8828 184° South 436 502 30,000  Level Atlanta Center
09:37AM 33.8092 -86.8889 182° South 431 496 30,000  Level Atlanta Center
09:38AM 33.6881 -86.8950 182° South 431 496 30,000  Level Atlanta Center
09:39AM 33.5742 -86.8611 166° South 418 481 30,000  Level Atlanta Center
09:40AM 33.4603 -86.8153 161° South 425 489 30,000  Level Atlanta Center
09:41AM 33.3486 -86.7692 161° South 430 495 30,000  Level Atlanta Center
09:42AM 33.2389 -86.7261 162° South 430 495 30,000  Level Atlanta Center
09:43AM 33.1253 -86.6806 161° South 430 495 30,000  Level Atlanta Center
09:44AM 33.0092 -86.6397 164° South 430 495 30,000  Level Atlanta Center
09:45AM 32.8994 -86.5894 159° South 430 495 30,000  Level Atlanta Center
09:46AM 32.7961 -86.5494 162° South 430 495 30,000  Level Atlanta Center
09:47AM 32.6842 -86.5019 160° South 430 495 30,000  Level Atlanta Center
09:48AM 32.5725 -86.4594 162° South 425 489 30,000  Level Atlanta Center
09:49AM 32.4522 -86.4167 163° South 419 482 30,000  Level Atlanta Center
09:50AM 32.3406 -86.3644 158° South 424 488 30,000  Level Atlanta Center
09:51AM 32.2533 -86.3303 162° South 424 488 30,000 -360 Level Atlanta Center
09:53AM 32.0317 -86.2767 168° South 423 487 29,000 -720 Descending Jacksonville Center
09:54AM 31.9239 -86.2458 166° South 413 475 28,000 -1,020 Descending Jacksonville Center
09:55AM 31.8200 -86.2200 168° South 400 460 27,000 -1,200 Descending Jacksonville Center
09:56AM 31.7144 -86.1919 167° South 394 453 25,700 -1,500 Descending Jacksonville Center
09:57AM 31.6086 -86.1686 169° South 389 448 24,000 -2,100 Descending Jacksonville Center
09:58AM 31.5092 -86.1408 167° South 383 441 21,500 -1,500 Descending Jacksonville Center
09:59AM 31.4094 -86.1178 169° South 378 435 21,000 -300 Descending Jacksonville Center
10:00AM 31.3078 -86.0900 167° South 372 428 21,000 -1,020 Level Jacksonville Center
10:01AM 31.2081 -86.0672 169° South 372 428 19,000 -2,040 Descending Jacksonville Center
10:02AM 31.1086 -86.0394 167° South 372 428 17,000 -2,220 Descending Jacksonville Center
10:02AM 31.0422 -86.0228 168° South 357 411 15,500 -2,040 Descending Jacksonville Center
10:03AM 31.0131 -86.0169 170° South 367 422 15,000 -1,920 Descending Jacksonville Center
10:04AM 30.9197 -85.9922 167° South 357 411 12,800 -2,040 Descending Jacksonville Center
10:05AM 30.8328 -85.9700 168° South 344 396 11,000 -1,680 Descending Jacksonville Center
10:06AM 30.7558 -85.9506 168° South 310 357 9,500 -1,800 Descending Jacksonville Center
10:07AM 30.6853 -85.9336 168° South 281 323 7,500 -2,100 Descending Jacksonville Center
10:08AM 30.6150 -85.9072 162° South 269 310 5,400 -1,500 Descending Jacksonville Center
10:09AM 30.5531 -85.8814 160° South 257 296 4,500 -1,020 Descending Jacksonville Center
10:10AM 30.5056 -85.8606 159° South 218 251 3,400 -1,200 Descending Jacksonville Center
10:11AM 30.4642 -85.8422 159° South 183 211 2,100 -960 Descending Jacksonville Center
10:12AM 30.4311 -85.8269 158° South 152 175 1,500 -720 Descending Jacksonville Center
10:13AM 30.3939 -85.8136 163° South 138 159 700 -600 Descending Jacksonville Center
10:14AM 30.3544 -85.7981 161° South 138 159 300 -420 Descending Jacksonville Center